createdAt,value
2022-10-23T00:00:17.281Z,18.20
2022-10-23T00:02:44.319Z,18.20
2022-10-23T00:05:11.359Z,18.20
2022-10-23T00:07:38.064Z,18.20
2022-10-23T00:10:05.213Z,18.20
2022-10-23T00:12:32.366Z,18.20
2022-10-23T00:14:59.111Z,18.20
2022-10-23T00:17:25.735Z,18.20
2022-10-23T00:19:52.402Z,18.20
2022-10-23T00:22:19.077Z,18.10
2022-10-23T00:24:45.798Z,18.10
2022-10-23T00:27:12.456Z,18.10
2022-10-23T00:29:39.100Z,18.10
2022-10-23T00:32:05.790Z,18.10
2022-10-23T00:34:32.443Z,18.10
2022-10-23T00:36:59.191Z,18.10
2022-10-23T00:39:25.890Z,18.10
2022-10-23T00:41:52.757Z,18.10
2022-10-23T00:44:22.546Z,18.10
2022-10-23T00:46:49.492Z,18.10
2022-10-23T00:49:16.429Z,18.10
2022-10-23T00:51:55.939Z,18.10
2022-10-23T00:54:26.875Z,18.10
2022-10-23T00:56:59.104Z,18.10
2022-10-23T00:59:26.365Z,18.10
2022-10-23T01:01:53.333Z,18.10
2022-10-23T01:04:20.868Z,18.10
2022-10-23T01:07:10.584Z,18.10
2022-10-23T01:10:06.548Z,18.10
2022-10-23T01:12:33.148Z,18.10
2022-10-23T01:15:13.420Z,18.10
2022-10-23T01:17:47.515Z,18.10
2022-10-23T01:20:44.567Z,18.10
2022-10-23T01:23:29.117Z,18.10
2022-10-23T01:26:09.995Z,18.00
2022-10-23T01:28:44.727Z,18.10
2022-10-23T01:31:29.828Z,18.00
2022-10-23T01:34:03.687Z,18.00
2022-10-23T01:36:32.906Z,18.00
2022-10-23T01:39:06.268Z,18.00
2022-10-23T01:41:39.184Z,18.00
2022-10-23T01:44:19.310Z,18.00
2022-10-23T01:46:49.510Z,18.00
2022-10-23T01:49:18.479Z,18.00
2022-10-23T01:51:52.888Z,18.00
2022-10-23T01:54:24.099Z,18.00
2022-10-23T01:56:51.612Z,18.00
2022-10-23T01:59:23.553Z,18.00
2022-10-23T02:01:54.171Z,18.00
2022-10-23T02:04:31.076Z,18.00
2022-10-23T02:06:57.886Z,18.10
2022-10-23T02:09:24.658Z,18.10
2022-10-23T02:11:57.769Z,18.20
2022-10-23T02:14:40.686Z,18.20
2022-10-23T02:17:33.391Z,18.30
2022-10-23T02:20:25.447Z,18.30
2022-10-23T02:23:25.150Z,18.30
2022-10-23T02:25:57.712Z,18.40
2022-10-23T02:28:32.692Z,18.40
2022-10-23T02:31:00.311Z,18.40
2022-10-23T02:33:28.901Z,18.40
2022-10-23T02:35:56.011Z,18.40
2022-10-23T02:38:40.547Z,18.40
2022-10-23T02:41:16.400Z,18.50
2022-10-23T02:44:21.768Z,18.50
2022-10-23T02:46:51.172Z,18.50
2022-10-23T02:49:20.649Z,18.50
2022-10-23T02:52:08.800Z,18.50
2022-10-23T02:54:55.217Z,18.50
2022-10-23T02:57:26.227Z,18.50
2022-10-23T02:59:59.653Z,18.50
2022-10-23T03:05:07.168Z,18.50
2022-10-23T03:07:34.286Z,18.50
2022-10-23T03:10:00.965Z,18.60
2022-10-23T03:12:27.621Z,18.60
2022-10-23T03:14:54.263Z,18.60
2022-10-23T03:17:20.925Z,18.60
2022-10-23T03:19:47.571Z,18.60
2022-10-23T03:22:14.222Z,18.60
2022-10-23T03:24:40.843Z,18.60
2022-10-23T03:27:07.595Z,18.60
2022-10-23T03:29:34.271Z,18.60
2022-10-23T03:32:00.913Z,18.60
2022-10-23T03:34:27.587Z,18.60
2022-10-23T03:36:54.338Z,18.60
2022-10-23T03:39:21.227Z,18.60
2022-10-23T03:41:48.087Z,18.60
2022-10-23T03:44:14.749Z,18.60
2022-10-23T03:46:41.440Z,18.60
2022-10-23T03:49:08.117Z,18.60
2022-10-23T03:51:35.204Z,18.60
2022-10-23T03:54:02.109Z,18.60
2022-10-23T03:56:28.820Z,18.60
2022-10-23T03:58:55.500Z,18.60
2022-10-23T04:01:22.282Z,18.60
2022-10-23T04:03:48.997Z,18.60
2022-10-23T04:06:15.675Z,18.70
2022-10-23T04:08:45.628Z,18.60
2022-10-23T04:11:12.340Z,18.60
2022-10-23T04:13:38.970Z,18.60
2022-10-23T04:16:05.780Z,18.60
2022-10-23T04:18:32.430Z,18.60
2022-10-23T04:20:59.085Z,18.60
2022-10-23T04:23:25.771Z,18.60
2022-10-23T04:25:55.414Z,18.60
2022-10-23T04:28:22.051Z,18.60
2022-10-23T04:30:48.688Z,18.60
2022-10-23T04:33:15.404Z,18.60
2022-10-23T04:35:42.106Z,18.60
2022-10-23T04:38:08.798Z,18.60
2022-10-23T04:40:35.583Z,18.60
2022-10-23T04:43:02.248Z,18.60
2022-10-23T04:45:29.000Z,18.60
2022-10-23T04:47:56.240Z,18.60
2022-10-23T04:50:23.383Z,18.70
2022-10-23T04:52:54.677Z,18.60
2022-10-23T04:55:21.455Z,18.60
2022-10-23T04:57:48.350Z,18.60
2022-10-23T05:00:18.652Z,18.60
2022-10-23T05:02:45.802Z,18.60
2022-10-23T05:05:12.480Z,18.60
2022-10-23T05:07:39.278Z,18.60
2022-10-23T05:10:06.673Z,18.60
2022-10-23T05:12:33.361Z,18.60
2022-10-23T05:15:00.057Z,18.60
2022-10-23T05:17:32.361Z,18.60
2022-10-23T05:20:02.951Z,18.60
2022-10-23T05:22:34.463Z,18.60
2022-10-23T05:25:02.179Z,18.60
2022-10-23T05:27:28.845Z,18.60
2022-10-23T05:29:55.562Z,18.50
2022-10-23T05:32:24.669Z,18.50
2022-10-23T05:34:51.400Z,18.50
2022-10-23T05:37:18.095Z,18.50
2022-10-23T05:39:44.855Z,18.40
2022-10-23T05:42:11.549Z,18.40
2022-10-23T05:44:38.381Z,18.40
2022-10-23T05:47:05.141Z,18.40
2022-10-23T05:49:31.813Z,18.40
2022-10-23T05:51:58.578Z,18.40
2022-10-23T05:54:25.235Z,18.40
2022-10-23T05:56:52.154Z,18.50
2022-10-23T05:59:22.074Z,18.50
2022-10-23T06:01:50.080Z,18.40
2022-10-23T06:04:16.794Z,18.40
2022-10-23T06:06:46.574Z,18.40
2022-10-23T06:09:14.404Z,18.30
2022-10-23T06:11:41.763Z,18.40
2022-10-23T06:14:08.559Z,18.40
2022-10-23T06:16:35.219Z,18.40
2022-10-23T06:19:01.941Z,18.30
2022-10-23T06:21:28.581Z,18.30
2022-10-23T06:23:55.630Z,18.30
2022-10-23T06:26:22.536Z,18.30
2022-10-23T06:28:49.309Z,18.30
2022-10-23T06:31:19.150Z,18.30
2022-10-23T06:33:46.225Z,18.30
2022-10-23T06:36:12.946Z,18.30
2022-10-23T06:38:40.645Z,18.30
2022-10-23T06:41:16.988Z,18.30
2022-10-23T06:43:44.101Z,18.40
2022-10-23T06:46:11.040Z,18.40
2022-10-23T06:48:37.836Z,18.30
2022-10-23T06:51:08.207Z,18.30
2022-10-23T06:53:35.904Z,18.40
2022-10-23T06:56:04.291Z,18.40
2022-10-23T06:58:31.608Z,18.30
2022-10-23T07:01:02.387Z,18.30
2022-10-23T07:03:29.598Z,18.40
2022-10-23T07:05:56.249Z,18.40
2022-10-23T07:08:23.851Z,18.40
2022-10-23T07:10:50.480Z,18.30
2022-10-23T07:13:17.346Z,18.30
2022-10-23T07:15:44.387Z,18.40
2022-10-23T07:18:16.447Z,18.40
2022-10-23T07:20:43.241Z,18.40
2022-10-23T07:23:12.254Z,18.30
2022-10-23T07:25:38.964Z,18.40
2022-10-23T07:28:05.716Z,18.30
2022-10-23T07:30:32.406Z,18.30
2022-10-23T07:32:59.227Z,18.30
2022-10-23T07:35:26.060Z,18.30
2022-10-23T07:37:52.794Z,18.30
2022-10-23T07:40:19.498Z,18.30
2022-10-23T07:42:46.142Z,18.20
2022-10-23T07:45:12.879Z,18.20
2022-10-23T07:47:39.813Z,18.20
2022-10-23T07:50:07.191Z,18.20
2022-10-23T07:52:36.215Z,18.20
2022-10-23T07:55:03.615Z,18.10
2022-10-23T07:57:30.270Z,18.20
2022-10-23T07:59:57.048Z,18.10
2022-10-23T08:02:23.906Z,18.10
2022-10-23T08:04:50.825Z,18.10
2022-10-23T08:07:17.675Z,18.10
2022-10-23T08:09:44.428Z,18.10
2022-10-23T08:12:11.189Z,18.10
2022-10-23T08:14:37.858Z,18.10
2022-10-23T08:17:05.245Z,18.10
2022-10-23T08:19:32.484Z,18.10
2022-10-23T08:21:59.265Z,18.10
2022-10-23T08:24:25.935Z,18.00
2022-10-23T08:26:53.018Z,18.10
2022-10-23T08:29:19.748Z,18.10
2022-10-23T08:31:46.785Z,18.10
2022-10-23T08:34:14.093Z,18.10
2022-10-23T08:36:40.850Z,18.00
2022-10-23T08:39:09.393Z,18.10
2022-10-23T08:41:43.050Z,18.10
2022-10-23T08:44:21.659Z,18.10
2022-10-23T08:46:55.342Z,18.00
2022-10-23T08:49:36.341Z,18.10
2022-10-23T08:52:14.046Z,18.10
2022-10-23T08:54:54.766Z,18.00
2022-10-23T08:57:24.200Z,18.10
2022-10-23T09:00:14.197Z,18.00
2022-10-23T09:02:44.904Z,18.00
2022-10-23T09:05:53.568Z,18.10
2022-10-23T09:08:23.263Z,18.10
2022-10-23T09:10:57.223Z,18.10
2022-10-23T09:14:04.963Z,18.10
2022-10-23T09:17:03.857Z,18.10
2022-10-23T09:19:31.358Z,18.10
2022-10-23T09:21:59.015Z,18.10
2022-10-23T09:24:26.945Z,18.10
2022-10-23T09:26:54.623Z,18.00
2022-10-23T09:29:23.906Z,18.00
2022-10-23T09:31:56.000Z,18.10
2022-10-23T09:34:25.746Z,18.00
2022-10-23T09:36:59.590Z,18.10
2022-10-23T09:39:28.577Z,18.10
2022-10-23T09:41:57.022Z,18.10
2022-10-23T09:46:58.971Z,18.10
2022-10-23T09:49:28.250Z,18.10
2022-10-23T09:52:11.890Z,18.00
2022-10-23T09:54:47.894Z,18.00
2022-10-23T09:57:25.291Z,18.00
2022-10-23T10:00:00.106Z,18.00
2022-10-23T10:02:31.417Z,18.00
2022-10-23T10:04:58.620Z,18.00
2022-10-23T10:07:29.372Z,18.00
2022-10-23T10:09:58.365Z,18.00
2022-10-23T10:12:45.986Z,18.10
2022-10-23T10:15:24.834Z,18.10
2022-10-23T10:18:09.711Z,18.10
2022-10-23T10:21:03.618Z,18.10
2022-10-23T10:23:35.201Z,18.10
2022-10-23T10:26:42.943Z,18.10
2022-10-23T10:29:33.596Z,18.10
2022-10-23T10:32:23.324Z,18.10
2022-10-23T10:35:10.074Z,18.10
2022-10-23T10:37:55.030Z,18.10
2022-10-23T10:40:41.241Z,18.10
2022-10-23T10:43:38.573Z,18.10
2022-10-23T10:46:25.428Z,18.10
2022-10-23T10:49:06.451Z,18.10
2022-10-23T10:51:44.091Z,18.10
2022-10-23T10:54:23.667Z,18.00
2022-10-23T10:56:50.479Z,18.00
2022-10-23T10:59:23.337Z,18.00
2022-10-23T11:02:04.808Z,18.00
2022-10-23T11:04:43.060Z,18.00
2022-10-23T11:07:15.224Z,18.00
2022-10-23T11:09:43.196Z,18.00
2022-10-23T11:12:20.245Z,18.00
2022-10-23T11:14:47.209Z,18.00
2022-10-23T11:17:38.802Z,18.00
2022-10-23T11:20:30.710Z,18.00
2022-10-23T11:23:06.425Z,18.00
2022-10-23T11:26:01.043Z,18.00
2022-10-23T11:28:48.619Z,18.10
2022-10-23T11:31:42.533Z,18.00
2022-10-23T11:34:24.352Z,18.00
2022-10-23T11:36:55.303Z,18.00
2022-10-23T11:39:25.972Z,18.10
2022-10-23T11:41:58.474Z,18.10
2022-10-23T11:44:41.590Z,18.10
2022-10-23T11:47:40.129Z,18.10
2022-10-23T11:50:07.371Z,18.10
2022-10-23T11:53:13.076Z,18.10
2022-10-23T11:55:56.202Z,18.10
2022-10-23T11:58:31.867Z,18.10
2022-10-23T12:01:06.088Z,18.10
2022-10-23T12:03:42.432Z,18.20
2022-10-23T12:06:27.110Z,18.20
2022-10-23T12:08:59.127Z,18.20
2022-10-23T12:11:42.787Z,18.20
2022-10-23T12:14:40.380Z,18.30
2022-10-23T12:17:25.383Z,18.30
2022-10-23T12:20:12.779Z,18.30
2022-10-23T12:22:54.442Z,18.30
2022-10-23T12:25:43.567Z,18.30
2022-10-23T12:28:23.214Z,18.30
2022-10-23T12:31:27.532Z,18.40
2022-10-23T12:34:22.245Z,18.40
2022-10-23T12:36:54.809Z,18.40
2022-10-23T12:39:33.176Z,18.50
2022-10-23T12:42:00.779Z,18.50
2022-10-23T12:44:28.521Z,18.50
2022-10-23T12:46:59.149Z,18.50
2022-10-23T12:49:28.723Z,18.60
2022-10-23T12:52:14.439Z,18.60
2022-10-23T12:54:41.535Z,18.60
2022-10-23T12:57:22.685Z,18.60
2022-10-23T12:59:51.442Z,18.60
2022-10-23T13:02:25.509Z,18.70
2022-10-23T13:04:54.737Z,18.60
2022-10-23T13:07:26.131Z,18.70
2022-10-23T13:09:57.689Z,18.70
2022-10-23T13:12:34.204Z,18.70
2022-10-23T13:15:21.405Z,18.70
2022-10-23T13:20:35.068Z,18.70
2022-10-23T13:23:18.362Z,18.70
2022-10-23T13:26:01.437Z,18.70
2022-10-23T13:28:35.041Z,18.70
2022-10-23T13:31:10.690Z,18.80
2022-10-23T13:33:38.672Z,18.70
2022-10-23T13:36:13.476Z,18.80
2022-10-23T13:38:45.841Z,18.80
2022-10-23T13:41:20.452Z,18.80
2022-10-23T13:43:48.192Z,18.80
2022-10-23T13:46:16.360Z,18.90
2022-10-23T13:48:43.295Z,18.80
2022-10-23T13:51:25.386Z,18.90
2022-10-23T13:53:52.545Z,18.90
2022-10-23T13:56:21.074Z,18.90
2022-10-23T13:58:48.319Z,18.90
2022-10-23T14:01:29.791Z,18.90
2022-10-23T14:03:58.279Z,18.90
2022-10-23T14:06:25.342Z,18.90
2022-10-23T14:08:52.319Z,18.90
2022-10-23T14:11:20.130Z,18.90
2022-10-23T14:13:47.347Z,18.90
2022-10-23T14:16:16.066Z,18.90
2022-10-23T14:18:43.285Z,19.00
2022-10-23T14:21:12.627Z,19.00
2022-10-23T14:23:39.408Z,19.00
2022-10-23T14:26:08.165Z,19.00
2022-10-23T14:28:35.289Z,19.00
2022-10-23T14:31:13.520Z,19.00
2022-10-23T14:33:41.427Z,19.00
2022-10-23T14:36:08.758Z,19.00
2022-10-23T14:38:35.823Z,19.00
2022-10-23T14:41:03.012Z,19.00
2022-10-23T14:43:29.713Z,19.00
2022-10-23T14:45:56.519Z,19.10
2022-10-23T14:48:23.213Z,19.10
2022-10-23T14:50:50.344Z,19.10
2022-10-23T14:53:17.251Z,19.10
2022-10-23T14:55:43.996Z,19.10
2022-10-23T14:58:10.671Z,19.10
2022-10-23T15:00:37.438Z,19.10
2022-10-23T15:03:04.158Z,19.10
2022-10-23T15:05:30.898Z,19.10
2022-10-23T15:07:59.009Z,19.10
2022-10-23T15:10:25.774Z,19.20
2022-10-23T15:12:52.448Z,19.10
2022-10-23T15:15:19.218Z,19.20
2022-10-23T15:17:45.932Z,19.20
2022-10-23T15:20:12.631Z,19.20
2022-10-23T15:22:39.332Z,19.20
2022-10-23T15:25:06.781Z,19.20
2022-10-23T15:27:33.532Z,19.20
2022-10-23T15:30:00.250Z,19.20
2022-10-23T15:32:27.042Z,19.20
2022-10-23T15:34:53.779Z,19.20
2022-10-23T15:37:20.510Z,19.20
2022-10-23T15:39:47.319Z,19.20
2022-10-23T15:42:14.211Z,19.20
2022-10-23T15:44:41.477Z,19.20
2022-10-23T15:47:08.300Z,19.20
2022-10-23T15:49:35.317Z,19.20
2022-10-23T15:52:03.241Z,19.20
2022-10-23T15:54:32.806Z,19.20
2022-10-23T15:57:00.436Z,19.20
2022-10-23T15:59:28.663Z,19.20
2022-10-23T16:01:55.908Z,19.20
2022-10-23T16:04:22.818Z,19.20
2022-10-23T16:06:49.843Z,19.20
2022-10-23T16:09:16.907Z,19.20
2022-10-23T16:11:44.183Z,19.20
2022-10-23T16:14:15.945Z,19.20
2022-10-23T16:16:43.156Z,19.20
2022-10-23T16:19:11.384Z,19.20
2022-10-23T16:21:38.454Z,19.20
2022-10-23T16:24:07.270Z,19.20
2022-10-23T16:26:35.545Z,19.20
2022-10-23T16:29:05.382Z,19.20
2022-10-23T16:31:32.633Z,19.20
2022-10-23T16:34:00.791Z,19.20
2022-10-23T16:36:28.608Z,19.20
2022-10-23T16:38:55.421Z,19.20
2022-10-23T16:41:22.127Z,19.20
2022-10-23T16:43:48.815Z,19.20
2022-10-23T16:46:18.884Z,19.20
2022-10-23T16:48:46.059Z,19.20
2022-10-23T16:51:16.287Z,19.20
2022-10-23T16:53:43.950Z,19.20
2022-10-23T16:56:12.733Z,19.20
2022-10-23T16:58:42.382Z,19.20
2022-10-23T17:01:20.500Z,19.20
2022-10-23T17:03:49.314Z,19.20
2022-10-23T17:06:18.963Z,19.10
2022-10-23T17:08:46.043Z,19.20
2022-10-23T17:11:17.016Z,19.20
2022-10-23T17:13:55.262Z,19.20
2022-10-23T17:16:34.912Z,19.20
2022-10-23T17:19:02.405Z,19.20
2022-10-23T17:21:33.481Z,19.20
2022-10-23T17:26:33.193Z,19.20
2022-10-23T17:29:01.823Z,19.20
2022-10-23T17:31:31.697Z,19.20
2022-10-23T17:34:02.204Z,19.20
2022-10-23T17:36:31.189Z,19.20
2022-10-23T17:38:58.306Z,19.20
2022-10-23T17:41:26.166Z,19.20
2022-10-23T17:43:57.516Z,19.20
2022-10-23T17:46:24.259Z,19.10
2022-10-23T17:48:50.915Z,19.20
2022-10-23T17:51:20.424Z,19.20
2022-10-23T17:53:49.298Z,19.20
2022-10-23T17:56:22.653Z,19.20
2022-10-23T17:59:00.516Z,19.20
2022-10-23T18:01:29.100Z,19.20
2022-10-23T18:03:59.089Z,19.20
2022-10-23T18:06:29.798Z,19.20
2022-10-23T18:08:57.008Z,19.20
2022-10-23T18:11:29.567Z,19.10
2022-10-23T18:16:30.186Z,19.10
2022-10-23T18:18:58.667Z,19.20
2022-10-23T18:21:25.400Z,19.20
2022-10-23T18:23:52.615Z,19.20
2022-10-23T18:26:25.177Z,19.10
2022-10-23T18:28:55.440Z,19.10
2022-10-23T18:31:24.980Z,19.10
2022-10-23T18:34:01.441Z,19.10
2022-10-23T18:36:31.048Z,19.10
2022-10-23T18:38:58.012Z,19.10
2022-10-23T18:41:25.601Z,19.10
2022-10-23T18:43:52.826Z,19.10
2022-10-23T18:46:20.513Z,19.10
2022-10-23T18:48:47.963Z,19.10
2022-10-23T18:51:26.833Z,19.10
2022-10-23T18:53:53.865Z,19.10
2022-10-23T18:56:28.133Z,19.10
2022-10-23T18:59:00.046Z,19.10
2022-10-23T19:01:28.371Z,19.10
2022-10-23T19:06:24.087Z,19.10
2022-10-23T19:08:51.340Z,19.10
2022-10-23T19:11:20.844Z,19.10
2022-10-23T19:13:47.657Z,19.10
2022-10-23T19:16:16.240Z,19.10
2022-10-23T19:18:45.262Z,19.10
2022-10-23T19:21:12.731Z,19.10
2022-10-23T19:23:50.448Z,19.10
2022-10-23T19:26:20.293Z,19.10
2022-10-23T19:31:23.419Z,19.10
2022-10-23T19:33:50.381Z,19.10
2022-10-23T19:36:19.699Z,19.10
2022-10-23T19:38:49.138Z,19.10
2022-10-23T19:41:19.435Z,19.10
2022-10-23T19:43:54.978Z,19.10
2022-10-23T19:46:24.880Z,19.10
2022-10-23T19:48:55.195Z,19.00
2022-10-23T19:51:34.821Z,19.00
2022-10-23T19:54:09.414Z,19.00
2022-10-23T19:56:42.061Z,19.00
2022-10-23T19:59:10.285Z,19.00
2022-10-23T20:01:38.169Z,19.00
2022-10-23T20:04:07.670Z,19.00
2022-10-23T20:06:36.272Z,19.00
2022-10-23T20:09:07.986Z,19.00
2022-10-23T20:11:40.933Z,19.00
2022-10-23T20:14:12.320Z,19.00
2022-10-23T20:16:40.849Z,19.00
2022-10-23T20:19:13.963Z,19.00
2022-10-23T20:21:43.734Z,19.00
2022-10-23T20:24:15.360Z,19.00
2022-10-23T20:26:45.199Z,19.00
2022-10-23T20:29:15.206Z,19.00
2022-10-23T20:31:43.580Z,19.00
2022-10-23T20:34:11.366Z,18.90
2022-10-23T20:36:46.397Z,19.00
2022-10-23T20:39:17.567Z,18.90
2022-10-23T20:41:45.115Z,19.00
2022-10-23T20:44:14.948Z,19.00
2022-10-23T20:46:45.108Z,19.00
2022-10-23T20:49:13.232Z,18.90
2022-10-23T20:51:39.972Z,18.90
2022-10-23T20:54:06.849Z,18.90
2022-10-23T20:56:35.641Z,18.90
2022-10-23T20:59:08.292Z,18.90
2022-10-23T21:01:35.226Z,18.90
2022-10-23T21:04:03.399Z,18.90
2022-10-23T21:06:45.826Z,18.80
2022-10-23T21:09:18.464Z,18.80
2022-10-23T21:11:45.288Z,18.80
2022-10-23T21:14:12.175Z,18.80
2022-10-23T21:16:41.360Z,18.80
2022-10-23T21:19:10.256Z,18.80
2022-10-23T21:21:36.932Z,18.80
2022-10-23T21:24:09.289Z,18.70
2022-10-23T21:26:36.707Z,18.80
2022-10-23T21:29:20.000Z,18.70
2022-10-23T21:31:57.840Z,18.80
2022-10-23T21:34:26.150Z,18.80
2022-10-23T21:37:11.818Z,18.80
2022-10-23T21:39:38.951Z,18.80
2022-10-23T21:42:05.705Z,18.80
2022-10-23T21:44:32.591Z,18.80
2022-10-23T21:46:59.257Z,18.80
2022-10-23T21:49:25.962Z,18.80
2022-10-23T21:51:54.841Z,18.80
2022-10-23T21:54:22.015Z,18.80
2022-10-23T21:56:51.214Z,18.80
2022-10-23T21:59:20.188Z,18.80
2022-10-23T22:01:48.360Z,18.80
2022-10-23T22:04:19.445Z,18.80
2022-10-23T22:06:47.840Z,18.80
2022-10-23T22:09:18.888Z,18.80
2022-10-23T22:11:46.059Z,18.80
2022-10-23T22:14:12.756Z,18.80
2022-10-23T22:16:39.471Z,18.80
2022-10-23T22:19:06.128Z,18.80
2022-10-23T22:21:32.878Z,18.80
2022-10-23T22:24:01.111Z,18.70
2022-10-23T22:26:36.851Z,18.80
2022-10-23T22:29:12.153Z,18.80
2022-10-23T22:31:41.284Z,18.80
2022-10-23T22:34:25.273Z,18.80
2022-10-23T22:37:00.264Z,18.80
2022-10-23T22:39:26.995Z,18.80
2022-10-23T22:41:53.691Z,18.80
2022-10-23T22:44:20.370Z,18.80
2022-10-23T22:46:47.029Z,18.80
2022-10-23T22:49:13.739Z,18.80
2022-10-23T22:51:40.709Z,18.80
2022-10-23T22:54:07.756Z,18.80
2022-10-23T22:56:35.157Z,18.80
2022-10-23T22:59:03.027Z,18.80
2022-10-23T23:01:39.538Z,18.80
2022-10-23T23:04:19.571Z,18.80
2022-10-23T23:06:53.594Z,18.80
2022-10-23T23:09:20.332Z,18.80
2022-10-23T23:11:53.034Z,18.80
2022-10-23T23:14:24.074Z,18.90
2022-10-23T23:16:52.343Z,18.90
2022-10-23T23:19:19.253Z,18.80
2022-10-23T23:21:45.935Z,18.90
2022-10-23T23:24:12.695Z,18.90
2022-10-23T23:26:39.414Z,18.90
2022-10-23T23:29:06.118Z,18.90
2022-10-23T23:31:32.981Z,18.90
2022-10-23T23:33:59.714Z,18.90
2022-10-23T23:36:27.322Z,18.90
2022-10-23T23:38:55.518Z,18.90
2022-10-23T23:41:22.340Z,18.90
2022-10-23T23:43:49.641Z,18.90
2022-10-23T23:46:17.684Z,18.80
2022-10-23T23:48:47.933Z,18.90
2022-10-23T23:51:19.975Z,18.90
2022-10-23T23:53:48.003Z,18.90
2022-10-23T23:56:15.400Z,18.80
2022-10-23T23:58:42.057Z,18.90
